WZZ1917 UDYZ-EDDH
Flight info
| Callsign | WZZ1917 |
|---|---|
| Flight time | 4h 10m |
| Altitude | 34000 |
| Route | INDUR B374 BIRZU UB374 ERZ UL746 ODERO L746 LUGEB DCT MOBRA DCT PITOK DCT HDO DCT SOGMA M748 RARUP RARUP6A |
| Aircraft | A321/M-SDE3FGHIRWY/LB1 |
Departure
| Time | 2026-05-07 13:38 |
|---|---|
| Airport | Zvartnots International Airport (UDYZ) |
Arrival
| Time | 2026-05-07 17:49 |
|---|---|
| Airport | Hamburg Helmut Schmidt Airport (EDDH) |
| Time | Latitude | Longitude | Altitude | Speed | Heading |
|---|---|---|---|---|---|
| 2026-05-07 13:19 | 40.15091 | 44.39939 | 2838 ft | 0 kts | 359° |
| 2026-05-07 13:30 | 40.15077 | 44.39939 | 2837 ft | 4 kts | 1° |
| 2026-05-07 13:30 | 40.15050 | 44.39937 | 2836 ft | 4 kts | 7° |
| 2026-05-07 13:30 | 40.15023 | 44.39931 | 2836 ft | 4 kts | 15° |
| 2026-05-07 13:30 | 40.14998 | 44.39919 | 2836 ft | 4 kts | 36° |
| 2026-05-07 13:31 | 40.14985 | 44.39897 | 2835 ft | 2 kts | 88° |
| 2026-05-07 13:31 | 40.14985 | 44.39896 | 2835 ft | 0 kts | 89° |
| 2026-05-07 13:33 | 40.14985 | 44.39897 | 2835 ft | 1 kts | 89° |
| 2026-05-07 13:34 | 40.14985 | 44.39924 | 2836 ft | 4 kts | 89° |
| 2026-05-07 13:34 | 40.14985 | 44.40023 | 2837 ft | 7 kts | 89° |
| 2026-05-07 13:34 | 40.14986 | 44.40099 | 2837 ft | 9 kts | 89° |
| 2026-05-07 13:35 | 40.14986 | 44.40196 | 2837 ft | 13 kts | 89° |
| 2026-05-07 13:35 | 40.14988 | 44.40332 | 2837 ft | 16 kts | 89° |
| 2026-05-07 13:35 | 40.14988 | 44.40493 | 2837 ft | 20 kts | 90° |
| 2026-05-07 13:35 | 40.14990 | 44.40686 | 2837 ft | 22 kts | 89° |
| 2026-05-07 13:36 | 40.14992 | 44.40882 | 2837 ft | 21 kts | 89° |
| 2026-05-07 13:36 | 40.14992 | 44.41069 | 2837 ft | 18 kts | 90° |
| 2026-05-07 13:36 | 40.14920 | 44.41175 | 2837 ft | 16 kts | 149° |
| 2026-05-07 13:36 | 40.14825 | 44.41248 | 2838 ft | 16 kts | 149° |
| 2026-05-07 13:37 | 40.14744 | 44.41240 | 2836 ft | 14 kts | 249° |
| 2026-05-07 13:37 | 40.14740 | 44.41177 | 2838 ft | 3 kts | 270° |
| 2026-05-07 13:37 | 40.14740 | 44.41027 | 2837 ft | 43 kts | 269° |
| 2026-05-07 13:37 | 40.14737 | 44.40343 | 2838 ft | 105 kts | 269° |
| 2026-05-07 13:38 | 40.14731 | 44.39156 | 2830 ft | 155 kts | 270° |
| 2026-05-07 13:38 | 40.14727 | 44.37668 | 3346 ft | 162 kts | 270° |
| 2026-05-07 13:38 | 40.14725 | 44.36171 | 4004 ft | 169 kts | 269° |
| 2026-05-07 13:38 | 40.14710 | 44.34567 | 4336 ft | 185 kts | 268° |
| 2026-05-07 13:39 | 40.14646 | 44.32807 | 4478 ft | 203 kts | 266° |
| 2026-05-07 13:39 | 40.14559 | 44.30893 | 4618 ft | 218 kts | 266° |
| 2026-05-07 13:39 | 40.14464 | 44.28863 | 4812 ft | 228 kts | 266° |
| 2026-05-07 13:39 | 40.14366 | 44.26709 | 4927 ft | 246 kts | 266° |
| 2026-05-07 13:40 | 40.14264 | 44.24443 | 5279 ft | 255 kts | 266° |
| 2026-05-07 13:40 | 40.14157 | 44.22058 | 5629 ft | 267 kts | 266° |
| 2026-05-07 13:40 | 40.14048 | 44.19614 | 6212 ft | 271 kts | 266° |
| 2026-05-07 13:40 | 40.13938 | 44.17140 | 6840 ft | 274 kts | 266° |
| 2026-05-07 13:41 | 40.13823 | 44.14622 | 7539 ft | 273 kts | 266° |
| 2026-05-07 13:41 | 40.13708 | 44.12138 | 8165 ft | 275 kts | 265° |
| 2026-05-07 13:41 | 40.13631 | 44.10481 | 8545 ft | 277 kts | 266° |
| 2026-05-07 13:41 | 40.13477 | 44.07103 | 9361 ft | 280 kts | 265° |
| 2026-05-07 13:42 | 40.13401 | 44.05416 | 9755 ft | 281 kts | 265° |
| 2026-05-07 13:42 | 40.13284 | 44.02851 | 10243 ft | 288 kts | 265° |
| 2026-05-07 13:42 | 40.13161 | 44.00152 | 10366 ft | 307 kts | 265° |
| 2026-05-07 13:42 | 40.13030 | 43.97294 | 10515 ft | 324 kts | 265° |
| 2026-05-07 13:43 | 40.12888 | 43.94276 | 10644 ft | 341 kts | 265° |
| 2026-05-07 13:43 | 40.12739 | 43.91107 | 10761 ft | 357 kts | 265° |
| 2026-05-07 13:43 | 40.12582 | 43.87800 | 10902 ft | 372 kts | 265° |
| 2026-05-07 13:43 | 40.12422 | 43.84398 | 11285 ft | 378 kts | 265° |
| 2026-05-07 13:44 | 40.12258 | 43.80958 | 11807 ft | 381 kts | 265° |
| 2026-05-07 13:44 | 40.12093 | 43.77489 | 12362 ft | 383 kts | 265° |
| 2026-05-07 13:44 | 40.11926 | 43.74004 | 12898 ft | 386 kts | 265° |
| 2026-05-07 13:44 | 40.11755 | 43.70493 | 13440 ft | 389 kts | 265° |
| 2026-05-07 13:45 | 40.11582 | 43.66951 | 13954 ft | 392 kts | 265° |
| 2026-05-07 13:45 | 40.11403 | 43.63383 | 14443 ft | 395 kts | 265° |
| 2026-05-07 13:45 | 40.11215 | 43.59792 | 14945 ft | 397 kts | 265° |
| 2026-05-07 13:45 | 40.11017 | 43.56131 | 15455 ft | 400 kts | 265° |
| 2026-05-07 13:46 | 40.10818 | 43.52503 | 15927 ft | 402 kts | 264° |
| 2026-05-07 13:46 | 40.10619 | 43.48849 | 16383 ft | 405 kts | 265° |
| 2026-05-07 13:46 | 40.10420 | 43.45177 | 16840 ft | 407 kts | 265° |
| 2026-05-07 13:46 | 40.10221 | 43.41481 | 17281 ft | 409 kts | 265° |
| 2026-05-07 13:47 | 40.10019 | 43.37760 | 17698 ft | 411 kts | 265° |
| 2026-05-07 13:47 | 40.09814 | 43.34026 | 18106 ft | 414 kts | 265° |
| 2026-05-07 13:47 | 40.09605 | 43.30265 | 18520 ft | 416 kts | 264° |
| 2026-05-07 13:47 | 40.09396 | 43.26492 | 18882 ft | 418 kts | 264° |
| 2026-05-07 13:48 | 40.09183 | 43.22699 | 19250 ft | 419 kts | 264° |
| 2026-05-07 13:48 | 40.08967 | 43.18890 | 19610 ft | 421 kts | 265° |
| 2026-05-07 13:48 | 40.08748 | 43.15065 | 19936 ft | 424 kts | 265° |
| 2026-05-07 13:48 | 40.08527 | 43.11213 | 20283 ft | 426 kts | 265° |
| 2026-05-07 13:49 | 40.08308 | 43.07348 | 20642 ft | 428 kts | 265° |
| 2026-05-07 13:49 | 40.08085 | 43.03464 | 21003 ft | 430 kts | 265° |
| 2026-05-07 13:49 | 40.07856 | 42.99564 | 21368 ft | 432 kts | 265° |
| 2026-05-07 13:49 | 40.07623 | 42.95647 | 21729 ft | 434 kts | 265° |
| 2026-05-07 13:50 | 40.07705 | 42.91702 | 22055 ft | 437 kts | 278° |
| 2026-05-07 13:50 | 40.08443 | 42.87835 | 22374 ft | 440 kts | 284° |
| 2026-05-07 13:50 | 40.09272 | 42.83974 | 22714 ft | 442 kts | 284° |
| 2026-05-07 13:50 | 40.10118 | 42.80106 | 23045 ft | 444 kts | 284° |
| 2026-05-07 13:51 | 40.10971 | 42.76218 | 23355 ft | 447 kts | 285° |
| 2026-05-07 13:51 | 40.11827 | 42.72306 | 23642 ft | 449 kts | 285° |
| 2026-05-07 13:51 | 40.12682 | 42.68375 | 23916 ft | 451 kts | 284° |
| 2026-05-07 13:51 | 40.13535 | 42.64429 | 24191 ft | 452 kts | 284° |
| 2026-05-07 13:52 | 40.14387 | 42.60468 | 24476 ft | 453 kts | 284° |
| 2026-05-07 13:52 | 40.15236 | 42.56503 | 24757 ft | 455 kts | 284° |
| 2026-05-07 13:52 | 40.16085 | 42.52515 | 25066 ft | 455 kts | 284° |
| 2026-05-07 13:52 | 40.16931 | 42.48541 | 25486 ft | 453 kts | 284° |
| 2026-05-07 13:53 | 40.17772 | 42.44590 | 25857 ft | 452 kts | 284° |
| 2026-05-07 13:53 | 40.18619 | 42.40618 | 26197 ft | 453 kts | 284° |
| 2026-05-07 13:53 | 40.19461 | 42.36658 | 26583 ft | 452 kts | 284° |
| 2026-05-07 13:53 | 40.20301 | 42.32706 | 26974 ft | 450 kts | 284° |
| 2026-05-07 13:54 | 40.21138 | 42.28770 | 27367 ft | 449 kts | 284° |
| 2026-05-07 13:54 | 40.21971 | 42.24840 | 27768 ft | 448 kts | 283° |
| 2026-05-07 13:54 | 40.22801 | 42.20920 | 28161 ft | 446 kts | 283° |
| 2026-05-07 13:54 | 40.23624 | 42.17014 | 28551 ft | 445 kts | 283° |
| 2026-05-07 13:55 | 40.24443 | 42.13112 | 28946 ft | 444 kts | 283° |
| 2026-05-07 13:55 | 40.25259 | 42.09216 | 29340 ft | 443 kts | 283° |
| 2026-05-07 13:55 | 40.26080 | 42.05287 | 29724 ft | 441 kts | 283° |
| 2026-05-07 13:55 | 40.26889 | 42.01421 | 30086 ft | 440 kts | 283° |
| 2026-05-07 13:56 | 40.27694 | 41.97555 | 30410 ft | 439 kts | 283° |
| 2026-05-07 13:56 | 40.28497 | 41.93691 | 30691 ft | 439 kts | 283° |
| 2026-05-07 13:56 | 40.29299 | 41.89840 | 30979 ft | 438 kts | 283° |
| 2026-05-07 13:56 | 40.30096 | 41.86003 | 31248 ft | 437 kts | 282° |
| 2026-05-07 13:57 | 40.30895 | 41.82153 | 31457 ft | 438 kts | 283° |
| 2026-05-07 13:57 | 40.31695 | 41.78291 | 31616 ft | 440 kts | 283° |
| 2026-05-07 13:57 | 40.32498 | 41.74416 | 31841 ft | 440 kts | 283° |
| 2026-05-07 13:57 | 40.33299 | 41.70548 | 32099 ft | 440 kts | 283° |
| 2026-05-07 13:58 | 40.34091 | 41.66685 | 32360 ft | 439 kts | 283° |
| 2026-05-07 13:58 | 40.34883 | 41.62815 | 32624 ft | 438 kts | 283° |
| 2026-05-07 13:58 | 40.35672 | 41.58958 | 32873 ft | 438 kts | 283° |
| 2026-05-07 13:58 | 40.36458 | 41.55111 | 33133 ft | 437 kts | 282° |
| 2026-05-07 13:59 | 40.37240 | 41.51267 | 33368 ft | 437 kts | 283° |
| 2026-05-07 13:59 | 40.38024 | 41.47411 | 33584 ft | 437 kts | 283° |
| 2026-05-07 13:59 | 40.38807 | 41.43564 | 33795 ft | 436 kts | 283° |
| 2026-05-07 13:59 | 40.39590 | 41.39720 | 34018 ft | 436 kts | 283° |
| 2026-05-07 14:00 | 40.40370 | 41.35875 | 34133 ft | 437 kts | 283° |
| 2026-05-07 14:00 | 40.41938 | 41.28130 | 34146 ft | 440 kts | 283° |
| 2026-05-07 14:01 | 40.43504 | 41.20365 | 34155 ft | 441 kts | 283° |
| 2026-05-07 14:01 | 40.45064 | 41.12576 | 34142 ft | 442 kts | 283° |
| 2026-05-07 14:02 | 40.46621 | 41.04779 | 34144 ft | 442 kts | 283° |
| 2026-05-07 14:02 | 40.48174 | 40.96976 | 34145 ft | 442 kts | 283° |
| 2026-05-07 14:03 | 40.49728 | 40.89162 | 34160 ft | 443 kts | 283° |
| 2026-05-07 14:03 | 40.51278 | 40.81319 | 34156 ft | 444 kts | 283° |
| 2026-05-07 14:04 | 40.52821 | 40.73458 | 34156 ft | 445 kts | 283° |
| 2026-05-07 14:04 | 40.54361 | 40.65575 | 34162 ft | 445 kts | 283° |
| 2026-05-07 14:05 | 40.55912 | 40.57637 | 34164 ft | 446 kts | 283° |
| 2026-05-07 14:05 | 40.57453 | 40.49727 | 34167 ft | 446 kts | 283° |
| 2026-05-07 14:06 | 40.58986 | 40.41817 | 34181 ft | 447 kts | 283° |
| 2026-05-07 14:06 | 40.60515 | 40.33892 | 34183 ft | 447 kts | 283° |
| 2026-05-07 14:07 | 40.62035 | 40.25962 | 34193 ft | 447 kts | 283° |
| 2026-05-07 14:07 | 40.63550 | 40.18022 | 34192 ft | 448 kts | 284° |
| 2026-05-07 14:08 | 40.65072 | 40.10057 | 34183 ft | 449 kts | 284° |
| 2026-05-07 14:08 | 40.66589 | 40.02076 | 34193 ft | 449 kts | 284° |
| 2026-05-07 14:09 | 40.68099 | 39.94087 | 34196 ft | 449 kts | 284° |
| 2026-05-07 14:09 | 40.69604 | 39.86093 | 34199 ft | 450 kts | 284° |
| 2026-05-07 14:10 | 40.71097 | 39.78076 | 34208 ft | 450 kts | 284° |
| 2026-05-07 14:10 | 40.72591 | 39.70056 | 34205 ft | 450 kts | 284° |
| 2026-05-07 14:11 | 40.74092 | 39.62036 | 34212 ft | 450 kts | 284° |
| 2026-05-07 14:11 | 40.75583 | 39.54017 | 34205 ft | 451 kts | 284° |
| 2026-05-07 14:12 | 40.77061 | 39.45978 | 34203 ft | 451 kts | 284° |
| 2026-05-07 14:12 | 40.78529 | 39.37941 | 34201 ft | 451 kts | 284° |
| 2026-05-07 14:13 | 40.79999 | 39.29896 | 34194 ft | 451 kts | 284° |
| 2026-05-07 14:13 | 40.81468 | 39.21849 | 34192 ft | 451 kts | 284° |
| 2026-05-07 14:14 | 40.82928 | 39.13791 | 34193 ft | 451 kts | 284° |
| 2026-05-07 14:14 | 40.84146 | 39.07043 | 34194 ft | 451 kts | 284° |
| 2026-05-07 14:15 | 40.85601 | 38.98981 | 34197 ft | 451 kts | 284° |
| 2026-05-07 14:15 | 40.87044 | 38.90914 | 34197 ft | 451 kts | 284° |
| 2026-05-07 14:16 | 40.88480 | 38.82847 | 34197 ft | 451 kts | 284° |
| 2026-05-07 14:16 | 40.89911 | 38.74774 | 34198 ft | 451 kts | 284° |
| 2026-05-07 14:17 | 40.91341 | 38.66701 | 34199 ft | 450 kts | 284° |
| 2026-05-07 14:17 | 40.92759 | 38.58639 | 34202 ft | 450 kts | 285° |
| 2026-05-07 14:18 | 40.94170 | 38.50580 | 34203 ft | 450 kts | 285° |
| 2026-05-07 14:18 | 40.95576 | 38.42517 | 34209 ft | 450 kts | 285° |
| 2026-05-07 14:19 | 40.96975 | 38.34454 | 34209 ft | 450 kts | 284° |
| 2026-05-07 14:19 | 40.98367 | 38.26386 | 34204 ft | 449 kts | 285° |
| 2026-05-07 14:20 | 40.99759 | 38.18318 | 34208 ft | 449 kts | 285° |
| 2026-05-07 14:20 | 41.01146 | 38.10260 | 34209 ft | 449 kts | 285° |
| 2026-05-07 14:21 | 41.02526 | 38.02186 | 34209 ft | 449 kts | 284° |
| 2026-05-07 14:21 | 41.03891 | 37.94113 | 34193 ft | 449 kts | 285° |
| 2026-05-07 14:22 | 41.05249 | 37.86043 | 34195 ft | 449 kts | 285° |
| 2026-05-07 14:22 | 41.06613 | 37.77922 | 34191 ft | 448 kts | 285° |
| 2026-05-07 14:23 | 41.07965 | 37.69863 | 34189 ft | 447 kts | 285° |
| 2026-05-07 14:23 | 41.09309 | 37.61823 | 34174 ft | 447 kts | 285° |
| 2026-05-07 14:24 | 41.10647 | 37.53787 | 34191 ft | 446 kts | 285° |
| 2026-05-07 14:24 | 41.11971 | 37.45762 | 34176 ft | 445 kts | 285° |
| 2026-05-07 14:25 | 41.13284 | 37.37740 | 34178 ft | 445 kts | 285° |
| 2026-05-07 14:25 | 41.14602 | 37.29712 | 34172 ft | 445 kts | 285° |
| 2026-05-07 14:26 | 41.15917 | 37.21691 | 34174 ft | 444 kts | 285° |
| 2026-05-07 14:26 | 41.17211 | 37.13677 | 34172 ft | 444 kts | 284° |
| 2026-05-07 14:27 | 41.18496 | 37.05662 | 34180 ft | 444 kts | 284° |
| 2026-05-07 14:27 | 41.19785 | 36.97643 | 34178 ft | 444 kts | 285° |
| 2026-05-07 14:28 | 41.21076 | 36.89630 | 34175 ft | 444 kts | 284° |
| 2026-05-07 14:28 | 41.22351 | 36.81610 | 34176 ft | 443 kts | 284° |
| 2026-05-07 14:29 | 41.23612 | 36.73599 | 34183 ft | 442 kts | 284° |
| 2026-05-07 14:29 | 41.24868 | 36.65627 | 34184 ft | 442 kts | 284° |
| 2026-05-07 14:30 | 41.26123 | 36.57622 | 34177 ft | 441 kts | 284° |
| 2026-05-07 14:30 | 41.27839 | 36.49842 | 34184 ft | 438 kts | 291° |
| 2026-05-07 14:31 | 41.29803 | 36.42180 | 34184 ft | 437 kts | 291° |
| 2026-05-07 14:31 | 41.31756 | 36.34519 | 34185 ft | 437 kts | 291° |
| 2026-05-07 14:32 | 41.33700 | 36.26856 | 34182 ft | 436 kts | 292° |
| 2026-05-07 14:32 | 41.35641 | 36.19200 | 34194 ft | 434 kts | 292° |
| 2026-05-07 14:33 | 41.37552 | 36.11619 | 34188 ft | 433 kts | 291° |
| 2026-05-07 14:33 | 41.39454 | 36.04018 | 34179 ft | 432 kts | 291° |
| 2026-05-07 14:34 | 41.41355 | 35.96430 | 34169 ft | 431 kts | 292° |
| 2026-05-07 14:34 | 41.43242 | 35.88871 | 34180 ft | 429 kts | 292° |
| 2026-05-07 14:35 | 41.45124 | 35.81328 | 34179 ft | 428 kts | 292° |
| 2026-05-07 14:35 | 41.46994 | 35.73788 | 34176 ft | 428 kts | 292° |
| 2026-05-07 14:36 | 41.48858 | 35.66254 | 34176 ft | 427 kts | 292° |
| 2026-05-07 14:36 | 41.50716 | 35.58710 | 34173 ft | 427 kts | 292° |
| 2026-05-07 14:37 | 41.52567 | 35.51172 | 34162 ft | 427 kts | 292° |
| 2026-05-07 14:37 | 41.55325 | 35.39879 | 34159 ft | 427 kts | 292° |
| 2026-05-07 14:38 | 41.57159 | 35.32346 | 34142 ft | 427 kts | 292° |
| 2026-05-07 14:38 | 41.58993 | 35.24816 | 34128 ft | 427 kts | 291° |
| 2026-05-07 14:39 | 41.60824 | 35.17264 | 34129 ft | 426 kts | 291° |
| 2026-05-07 14:39 | 41.62641 | 35.09741 | 34128 ft | 427 kts | 291° |
| 2026-05-07 14:40 | 41.64463 | 35.02163 | 34123 ft | 428 kts | 291° |
| 2026-05-07 14:40 | 41.66283 | 34.94586 | 34123 ft | 428 kts | 291° |
| 2026-05-07 14:41 | 41.68095 | 34.87005 | 34125 ft | 428 kts | 291° |
| 2026-05-07 14:41 | 41.69901 | 34.79412 | 34126 ft | 428 kts | 290° |
| 2026-05-07 14:42 | 41.71704 | 34.71811 | 34112 ft | 429 kts | 291° |
| 2026-05-07 14:42 | 41.73502 | 34.64205 | 34119 ft | 429 kts | 290° |
| 2026-05-07 14:43 | 41.75294 | 34.56587 | 34127 ft | 429 kts | 290° |
| 2026-05-07 14:43 | 41.77088 | 34.48960 | 34124 ft | 429 kts | 290° |
| 2026-05-07 14:44 | 41.78878 | 34.41337 | 34115 ft | 429 kts | 290° |
| 2026-05-07 14:44 | 41.80660 | 34.33707 | 34121 ft | 429 kts | 290° |
| 2026-05-07 14:45 | 41.82440 | 34.26060 | 34137 ft | 429 kts | 290° |
| 2026-05-07 14:45 | 41.84216 | 34.18391 | 34138 ft | 429 kts | 290° |
| 2026-05-07 14:46 | 41.85976 | 34.10762 | 34130 ft | 429 kts | 290° |
| 2026-05-07 14:46 | 41.87741 | 34.03081 | 34132 ft | 429 kts | 290° |
| 2026-05-07 14:47 | 41.89502 | 33.95412 | 34146 ft | 429 kts | 290° |
| 2026-05-07 14:47 | 41.91251 | 33.87786 | 34153 ft | 429 kts | 290° |
| 2026-05-07 14:48 | 41.93005 | 33.80108 | 34154 ft | 429 kts | 290° |
| 2026-05-07 14:48 | 41.94455 | 33.73719 | 34156 ft | 429 kts | 290° |
| 2026-05-07 14:49 | 41.96129 | 33.66002 | 34151 ft | 429 kts | 289° |
| 2026-05-07 14:49 | 41.97620 | 33.58195 | 34153 ft | 430 kts | 288° |
| 2026-05-07 14:50 | 41.99070 | 33.50393 | 34132 ft | 430 kts | 288° |
| 2026-05-07 14:50 | 42.00537 | 33.42604 | 34127 ft | 430 kts | 288° |
| 2026-05-07 14:51 | 42.02018 | 33.34827 | 34141 ft | 429 kts | 288° |
| 2026-05-07 14:51 | 42.03508 | 33.27063 | 34147 ft | 429 kts | 288° |
| 2026-05-07 14:52 | 42.04981 | 33.19297 | 34148 ft | 429 kts | 288° |
| 2026-05-07 14:52 | 42.06442 | 33.11523 | 34145 ft | 428 kts | 288° |
| 2026-05-07 14:53 | 42.07923 | 33.03764 | 34149 ft | 428 kts | 289° |
| 2026-05-07 14:53 | 42.09508 | 32.96052 | 34151 ft | 427 kts | 290° |
| 2026-05-07 14:54 | 42.11123 | 32.88355 | 34147 ft | 427 kts | 290° |
| 2026-05-07 14:54 | 42.12709 | 32.80636 | 34135 ft | 427 kts | 289° |
| 2026-05-07 14:55 | 42.14264 | 32.72919 | 34151 ft | 427 kts | 289° |
| 2026-05-07 14:55 | 42.15810 | 32.65203 | 34141 ft | 426 kts | 289° |
| 2026-05-07 14:56 | 42.17361 | 32.57495 | 34148 ft | 426 kts | 289° |
| 2026-05-07 14:56 | 42.18904 | 32.49773 | 34147 ft | 426 kts | 289° |
| 2026-05-07 14:57 | 42.20439 | 32.42054 | 34150 ft | 426 kts | 289° |
| 2026-05-07 14:57 | 42.21986 | 32.34281 | 34144 ft | 426 kts | 289° |
| 2026-05-07 14:58 | 42.23507 | 32.26593 | 34151 ft | 426 kts | 289° |
| 2026-05-07 14:58 | 42.25027 | 32.18836 | 34131 ft | 426 kts | 289° |
| 2026-05-07 14:59 | 42.26532 | 32.11093 | 34154 ft | 426 kts | 289° |
| 2026-05-07 14:59 | 42.28042 | 32.03378 | 34159 ft | 425 kts | 289° |
| 2026-05-07 15:00 | 42.29559 | 31.95654 | 34159 ft | 425 kts | 289° |
| 2026-05-07 15:00 | 42.31064 | 31.87914 | 34160 ft | 425 kts | 289° |
| 2026-05-07 15:01 | 42.32561 | 31.80189 | 34144 ft | 425 kts | 289° |
| 2026-05-07 15:01 | 42.34048 | 31.72496 | 34142 ft | 425 kts | 289° |
| 2026-05-07 15:02 | 42.35532 | 31.64746 | 34135 ft | 425 kts | 289° |
| 2026-05-07 15:02 | 42.37006 | 31.56983 | 34141 ft | 425 kts | 288° |
| 2026-05-07 15:03 | 42.38484 | 31.49228 | 34128 ft | 426 kts | 288° |
| 2026-05-07 15:03 | 42.39964 | 31.41471 | 34133 ft | 426 kts | 288° |
| 2026-05-07 15:04 | 42.41437 | 31.33701 | 34139 ft | 427 kts | 288° |
| 2026-05-07 15:04 | 42.42899 | 31.25915 | 34143 ft | 427 kts | 288° |
| 2026-05-07 15:05 | 42.44359 | 31.18126 | 34140 ft | 427 kts | 288° |
| 2026-05-07 15:05 | 42.45807 | 31.10336 | 34148 ft | 426 kts | 288° |
| 2026-05-07 15:06 | 42.47248 | 31.02555 | 34154 ft | 426 kts | 288° |
| 2026-05-07 15:06 | 42.48692 | 30.94771 | 34156 ft | 426 kts | 288° |
| 2026-05-07 15:07 | 42.50124 | 30.86981 | 34148 ft | 426 kts | 288° |
| 2026-05-07 15:07 | 42.51545 | 30.79203 | 34162 ft | 425 kts | 288° |
| 2026-05-07 15:08 | 42.52960 | 30.71443 | 34164 ft | 424 kts | 288° |
| 2026-05-07 15:08 | 42.54367 | 30.63692 | 34164 ft | 423 kts | 288° |
| 2026-05-07 15:09 | 42.55773 | 30.55954 | 34162 ft | 423 kts | 288° |
| 2026-05-07 15:09 | 42.57163 | 30.48209 | 34159 ft | 422 kts | 288° |
| 2026-05-07 15:10 | 42.58546 | 30.40490 | 34168 ft | 420 kts | 288° |
| 2026-05-07 15:10 | 42.59919 | 30.32786 | 34170 ft | 419 kts | 288° |
| 2026-05-07 15:11 | 42.62024 | 30.25533 | 34164 ft | 410 kts | 305° |
| 2026-05-07 15:11 | 42.65581 | 30.19574 | 34160 ft | 406 kts | 314° |
| 2026-05-07 15:12 | 42.69333 | 30.13856 | 34161 ft | 405 kts | 313° |
| 2026-05-07 15:12 | 42.73072 | 30.08120 | 34166 ft | 405 kts | 313° |
| 2026-05-07 15:13 | 42.76805 | 30.02397 | 34158 ft | 404 kts | 313° |
| 2026-05-07 15:13 | 42.80565 | 29.96638 | 34141 ft | 404 kts | 313° |
| 2026-05-07 15:14 | 42.84271 | 29.90939 | 34149 ft | 404 kts | 313° |
| 2026-05-07 15:14 | 42.88020 | 29.85164 | 34154 ft | 404 kts | 313° |
| 2026-05-07 15:15 | 42.91742 | 29.79418 | 34171 ft | 404 kts | 313° |
| 2026-05-07 15:15 | 42.95457 | 29.73657 | 34146 ft | 405 kts | 313° |
| 2026-05-07 15:16 | 42.99176 | 29.67893 | 34147 ft | 405 kts | 313° |
| 2026-05-07 15:16 | 43.02897 | 29.62114 | 34148 ft | 405 kts | 312° |
| 2026-05-07 15:17 | 43.06617 | 29.56323 | 34154 ft | 405 kts | 312° |
| 2026-05-07 15:17 | 43.10339 | 29.50531 | 34154 ft | 405 kts | 312° |
| 2026-05-07 15:18 | 43.14057 | 29.44730 | 34151 ft | 405 kts | 312° |
| 2026-05-07 15:18 | 43.17769 | 29.38914 | 34153 ft | 405 kts | 312° |
| 2026-05-07 15:19 | 43.21478 | 29.33089 | 34151 ft | 405 kts | 312° |
| 2026-05-07 15:19 | 43.25185 | 29.27256 | 34138 ft | 406 kts | 312° |
| 2026-05-07 15:20 | 43.28889 | 29.21412 | 34154 ft | 406 kts | 312° |
| 2026-05-07 15:20 | 43.32611 | 29.15558 | 34150 ft | 407 kts | 312° |
| 2026-05-07 15:21 | 43.36325 | 29.09691 | 34151 ft | 407 kts | 312° |
| 2026-05-07 15:21 | 43.40035 | 29.03808 | 34137 ft | 407 kts | 311° |
| 2026-05-07 15:22 | 43.43173 | 28.98825 | 34140 ft | 408 kts | 311° |
| 2026-05-07 15:22 | 43.46865 | 28.92954 | 34139 ft | 408 kts | 311° |
| 2026-05-07 15:23 | 43.50576 | 28.87029 | 34142 ft | 409 kts | 311° |
| 2026-05-07 15:23 | 43.54287 | 28.81094 | 34146 ft | 409 kts | 311° |
| 2026-05-07 15:24 | 43.58007 | 28.75152 | 34125 ft | 410 kts | 311° |
| 2026-05-07 15:24 | 43.61811 | 28.69269 | 34123 ft | 411 kts | 313° |
| 2026-05-07 15:25 | 43.65667 | 28.63422 | 34143 ft | 412 kts | 313° |
| 2026-05-07 15:25 | 43.69511 | 28.57567 | 34142 ft | 411 kts | 313° |
| 2026-05-07 15:26 | 43.73338 | 28.51683 | 34132 ft | 412 kts | 312° |
| 2026-05-07 15:26 | 43.77164 | 28.45769 | 34127 ft | 412 kts | 312° |
| 2026-05-07 15:27 | 43.80992 | 28.39848 | 34123 ft | 413 kts | 312° |
| 2026-05-07 15:27 | 43.84830 | 28.33926 | 34125 ft | 413 kts | 312° |
| 2026-05-07 15:28 | 43.88664 | 28.27989 | 34106 ft | 414 kts | 312° |
| 2026-05-07 15:28 | 43.92497 | 28.22018 | 34101 ft | 415 kts | 312° |
| 2026-05-07 15:29 | 43.96345 | 28.16013 | 34098 ft | 416 kts | 312° |
| 2026-05-07 15:29 | 44.00206 | 28.10007 | 34097 ft | 417 kts | 312° |
| 2026-05-07 15:30 | 44.04083 | 28.03945 | 34107 ft | 417 kts | 311° |
| 2026-05-07 15:30 | 44.07929 | 27.97903 | 34100 ft | 418 kts | 311° |
| 2026-05-07 15:31 | 44.11785 | 27.91846 | 34103 ft | 418 kts | 311° |
| 2026-05-07 15:31 | 44.15646 | 27.85780 | 34100 ft | 419 kts | 311° |
| 2026-05-07 15:32 | 44.19502 | 27.79704 | 34081 ft | 419 kts | 311° |
| 2026-05-07 15:32 | 44.23363 | 27.73600 | 34078 ft | 420 kts | 311° |
| 2026-05-07 15:33 | 44.27229 | 27.67467 | 34079 ft | 421 kts | 311° |
| 2026-05-07 15:33 | 44.31103 | 27.61322 | 34083 ft | 422 kts | 311° |
| 2026-05-07 15:34 | 44.34984 | 27.55164 | 34077 ft | 422 kts | 310° |
| 2026-05-07 15:34 | 44.38854 | 27.48975 | 34082 ft | 423 kts | 310° |
| 2026-05-07 15:35 | 44.42730 | 27.42779 | 34083 ft | 423 kts | 310° |
| 2026-05-07 15:35 | 44.46605 | 27.36574 | 34078 ft | 424 kts | 310° |
| 2026-05-07 15:36 | 44.50483 | 27.30352 | 34082 ft | 424 kts | 310° |
| 2026-05-07 15:36 | 44.54359 | 27.24116 | 34073 ft | 424 kts | 310° |
| 2026-05-07 15:37 | 44.58237 | 27.17870 | 34073 ft | 425 kts | 310° |
| 2026-05-07 15:37 | 44.62112 | 27.11608 | 34087 ft | 425 kts | 310° |
| 2026-05-07 15:38 | 44.65983 | 27.05335 | 34073 ft | 425 kts | 310° |
| 2026-05-07 15:38 | 44.69881 | 26.99012 | 34079 ft | 425 kts | 310° |
| 2026-05-07 15:39 | 44.73745 | 26.92716 | 34076 ft | 425 kts | 310° |
| 2026-05-07 15:39 | 44.77590 | 26.86451 | 34069 ft | 426 kts | 310° |
| 2026-05-07 15:40 | 44.81468 | 26.80137 | 34067 ft | 426 kts | 310° |
| 2026-05-07 15:40 | 44.85361 | 26.73762 | 34064 ft | 427 kts | 309° |
| 2026-05-07 15:41 | 44.89209 | 26.67440 | 34061 ft | 427 kts | 309° |
| 2026-05-07 15:41 | 44.93075 | 26.61075 | 34064 ft | 427 kts | 309° |
| 2026-05-07 15:42 | 44.96941 | 26.54700 | 34063 ft | 427 kts | 309° |
| 2026-05-07 15:42 | 45.00804 | 26.48319 | 34056 ft | 427 kts | 309° |
| 2026-05-07 15:43 | 45.04668 | 26.41924 | 34057 ft | 428 kts | 309° |
| 2026-05-07 15:43 | 45.08556 | 26.35474 | 34070 ft | 428 kts | 309° |
| 2026-05-07 15:44 | 45.12420 | 26.29046 | 34070 ft | 429 kts | 309° |
| 2026-05-07 15:44 | 45.16290 | 26.22602 | 34062 ft | 430 kts | 309° |
| 2026-05-07 15:45 | 45.20158 | 26.16140 | 34064 ft | 430 kts | 309° |
| 2026-05-07 15:45 | 45.24021 | 26.09654 | 34067 ft | 431 kts | 308° |
| 2026-05-07 15:46 | 45.29823 | 25.99905 | 34072 ft | 431 kts | 308° |
| 2026-05-07 15:47 | 45.33683 | 25.93398 | 34076 ft | 431 kts | 308° |
| 2026-05-07 15:47 | 45.37553 | 25.86866 | 34076 ft | 431 kts | 308° |
| 2026-05-07 15:48 | 45.41412 | 25.80333 | 34074 ft | 432 kts | 308° |
| 2026-05-07 15:48 | 45.45272 | 25.73780 | 34078 ft | 431 kts | 307° |
| 2026-05-07 15:49 | 45.49130 | 25.67223 | 34074 ft | 432 kts | 308° |
| 2026-05-07 15:49 | 45.52991 | 25.60654 | 34065 ft | 432 kts | 307° |
| 2026-05-07 15:50 | 45.56844 | 25.54063 | 34060 ft | 432 kts | 307° |
| 2026-05-07 15:50 | 45.60688 | 25.47464 | 34057 ft | 432 kts | 307° |
| 2026-05-07 15:51 | 45.64531 | 25.40860 | 34070 ft | 432 kts | 306° |
| 2026-05-07 15:51 | 45.68371 | 25.34255 | 34051 ft | 432 kts | 306° |
| 2026-05-07 15:52 | 45.72210 | 25.27649 | 34050 ft | 431 kts | 306° |
| 2026-05-07 15:52 | 45.76040 | 25.21040 | 34047 ft | 431 kts | 306° |
| 2026-05-07 15:53 | 45.79864 | 25.14408 | 34055 ft | 431 kts | 305° |
| 2026-05-07 15:53 | 45.83688 | 25.07763 | 34041 ft | 432 kts | 306° |
| 2026-05-07 15:54 | 45.87512 | 25.01114 | 34036 ft | 432 kts | 306° |
| 2026-05-07 15:54 | 45.91324 | 24.94449 | 34037 ft | 432 kts | 305° |
| 2026-05-07 15:55 | 45.94513 | 24.88853 | 34037 ft | 432 kts | 305° |
| 2026-05-07 15:55 | 45.98324 | 24.82173 | 34023 ft | 433 kts | 304° |
| 2026-05-07 15:56 | 46.02140 | 24.75471 | 34019 ft | 434 kts | 304° |
| 2026-05-07 15:56 | 46.05964 | 24.68747 | 34019 ft | 434 kts | 304° |
| 2026-05-07 15:57 | 46.09787 | 24.61996 | 34022 ft | 435 kts | 304° |
| 2026-05-07 15:57 | 46.13609 | 24.55219 | 34031 ft | 436 kts | 304° |
| 2026-05-07 15:58 | 46.17438 | 24.48418 | 34025 ft | 437 kts | 304° |
| 2026-05-07 15:58 | 46.21297 | 24.41559 | 34024 ft | 438 kts | 304° |
| 2026-05-07 15:59 | 46.25133 | 24.34720 | 34026 ft | 438 kts | 304° |
| 2026-05-07 15:59 | 46.28969 | 24.27868 | 34027 ft | 439 kts | 304° |
| 2026-05-07 16:00 | 46.32806 | 24.20992 | 34029 ft | 439 kts | 303° |
| 2026-05-07 16:00 | 46.36609 | 24.14159 | 34033 ft | 439 kts | 303° |
| 2026-05-07 16:01 | 46.40464 | 24.07221 | 34036 ft | 439 kts | 303° |
| 2026-05-07 16:01 | 46.44287 | 24.00319 | 34036 ft | 439 kts | 303° |
| 2026-05-07 16:02 | 46.48104 | 23.93400 | 34046 ft | 439 kts | 303° |
| 2026-05-07 16:02 | 46.51921 | 23.86466 | 34046 ft | 440 kts | 303° |
| 2026-05-07 16:03 | 46.55749 | 23.79519 | 34044 ft | 440 kts | 303° |
| 2026-05-07 16:03 | 46.59561 | 23.72576 | 34049 ft | 439 kts | 303° |
| 2026-05-07 16:04 | 46.63362 | 23.65622 | 34063 ft | 439 kts | 303° |
| 2026-05-07 16:04 | 46.67163 | 23.58650 | 34058 ft | 440 kts | 303° |
| 2026-05-07 16:05 | 46.70966 | 23.51664 | 34054 ft | 440 kts | 303° |
| 2026-05-07 16:05 | 46.74764 | 23.44661 | 34051 ft | 440 kts | 303° |
| 2026-05-07 16:06 | 46.78565 | 23.37647 | 34078 ft | 441 kts | 304° |
| 2026-05-07 16:06 | 46.82371 | 23.30607 | 34067 ft | 442 kts | 304° |
| 2026-05-07 16:07 | 46.86173 | 23.23554 | 34065 ft | 442 kts | 304° |
| 2026-05-07 16:07 | 46.89973 | 23.16476 | 34064 ft | 442 kts | 304° |
| 2026-05-07 16:08 | 46.93770 | 23.09384 | 34078 ft | 443 kts | 304° |
| 2026-05-07 16:08 | 46.97573 | 23.02273 | 34071 ft | 444 kts | 304° |
| 2026-05-07 16:09 | 47.01377 | 22.95143 | 34062 ft | 444 kts | 304° |
| 2026-05-07 16:09 | 47.05179 | 22.87993 | 34065 ft | 445 kts | 304° |
| 2026-05-07 16:10 | 47.08974 | 22.80832 | 34065 ft | 445 kts | 304° |
| 2026-05-07 16:10 | 47.12773 | 22.73655 | 34075 ft | 445 kts | 303° |
| 2026-05-07 16:11 | 47.16567 | 22.66464 | 34065 ft | 445 kts | 303° |
| 2026-05-07 16:11 | 47.20359 | 22.59251 | 34054 ft | 445 kts | 303° |
| 2026-05-07 16:12 | 47.24146 | 22.52034 | 34057 ft | 445 kts | 303° |
| 2026-05-07 16:12 | 47.27935 | 22.44812 | 34058 ft | 446 kts | 302° |
| 2026-05-07 16:13 | 47.31722 | 22.37557 | 34060 ft | 446 kts | 302° |
| 2026-05-07 16:13 | 47.35505 | 22.30292 | 34057 ft | 447 kts | 302° |
| 2026-05-07 16:14 | 47.39282 | 22.23018 | 34058 ft | 446 kts | 302° |
| 2026-05-07 16:14 | 47.43055 | 22.15731 | 34075 ft | 447 kts | 302° |
| 2026-05-07 16:15 | 47.46827 | 22.08430 | 34057 ft | 447 kts | 302° |
| 2026-05-07 16:15 | 47.50614 | 22.01057 | 34047 ft | 448 kts | 302° |
| 2026-05-07 16:16 | 47.54361 | 21.93760 | 34035 ft | 448 kts | 302° |
| 2026-05-07 16:16 | 47.58157 | 21.86361 | 34031 ft | 448 kts | 302° |
| 2026-05-07 16:17 | 47.61922 | 21.78995 | 34040 ft | 449 kts | 302° |
| 2026-05-07 16:17 | 47.65695 | 21.71611 | 34038 ft | 449 kts | 302° |
| 2026-05-07 16:18 | 47.69467 | 21.64223 | 34034 ft | 449 kts | 302° |
| 2026-05-07 16:18 | 47.73227 | 21.56810 | 34034 ft | 449 kts | 302° |
| 2026-05-07 16:19 | 47.76976 | 21.49375 | 34060 ft | 449 kts | 302° |
| 2026-05-07 16:19 | 47.80724 | 21.41933 | 34052 ft | 449 kts | 301° |
| 2026-05-07 16:20 | 47.84462 | 21.34500 | 34041 ft | 448 kts | 301° |
| 2026-05-07 16:20 | 47.88194 | 21.27064 | 34026 ft | 448 kts | 301° |
| 2026-05-07 16:21 | 47.91919 | 21.19616 | 34034 ft | 448 kts | 301° |
| 2026-05-07 16:21 | 47.95645 | 21.12157 | 34027 ft | 448 kts | 301° |
| 2026-05-07 16:22 | 47.99363 | 21.04695 | 34026 ft | 448 kts | 301° |
| 2026-05-07 16:22 | 48.03072 | 20.97221 | 34016 ft | 448 kts | 301° |
| 2026-05-07 16:23 | 48.06772 | 20.89728 | 34017 ft | 448 kts | 301° |
| 2026-05-07 16:23 | 48.10475 | 20.82224 | 34032 ft | 449 kts | 301° |
| 2026-05-07 16:24 | 48.14174 | 20.74701 | 34020 ft | 449 kts | 300° |
| 2026-05-07 16:24 | 48.17875 | 20.67152 | 34020 ft | 450 kts | 301° |
| 2026-05-07 16:25 | 48.21572 | 20.59593 | 34020 ft | 450 kts | 300° |
| 2026-05-07 16:25 | 48.25268 | 20.52015 | 34019 ft | 450 kts | 300° |
| 2026-05-07 16:26 | 48.28970 | 20.44404 | 34017 ft | 449 kts | 300° |
| 2026-05-07 16:26 | 48.32027 | 20.38103 | 34009 ft | 449 kts | 300° |
| 2026-05-07 16:27 | 48.35699 | 20.30509 | 34019 ft | 449 kts | 300° |
| 2026-05-07 16:27 | 48.39376 | 20.22912 | 34024 ft | 450 kts | 300° |
| 2026-05-07 16:28 | 48.43046 | 20.15294 | 34027 ft | 449 kts | 299° |
| 2026-05-07 16:28 | 48.46695 | 20.07680 | 34023 ft | 448 kts | 299° |
| 2026-05-07 16:29 | 48.50343 | 20.00043 | 34025 ft | 448 kts | 299° |
| 2026-05-07 16:29 | 48.53985 | 19.92402 | 34026 ft | 448 kts | 299° |
| 2026-05-07 16:30 | 48.57625 | 19.84755 | 34041 ft | 449 kts | 298° |
| 2026-05-07 16:30 | 48.61260 | 19.77084 | 34005 ft | 449 kts | 298° |
| 2026-05-07 16:31 | 48.64892 | 19.69398 | 34006 ft | 450 kts | 298° |
| 2026-05-07 16:31 | 48.68531 | 19.61679 | 34015 ft | 451 kts | 298° |
| 2026-05-07 16:32 | 48.72166 | 19.53948 | 34033 ft | 451 kts | 298° |
| 2026-05-07 16:32 | 48.75800 | 19.46207 | 34041 ft | 451 kts | 298° |
| 2026-05-07 16:33 | 48.79429 | 19.38439 | 34030 ft | 452 kts | 298° |
| 2026-05-07 16:33 | 48.83081 | 19.30607 | 34023 ft | 452 kts | 298° |
| 2026-05-07 16:34 | 48.86709 | 19.22810 | 34016 ft | 452 kts | 298° |
| 2026-05-07 16:34 | 48.90334 | 19.15002 | 34022 ft | 451 kts | 297° |
| 2026-05-07 16:35 | 48.93929 | 19.07227 | 34014 ft | 449 kts | 297° |
| 2026-05-07 16:35 | 48.97510 | 18.99448 | 34012 ft | 449 kts | 297° |
| 2026-05-07 16:36 | 49.01087 | 18.91651 | 34007 ft | 449 kts | 297° |
| 2026-05-07 16:36 | 49.04661 | 18.83858 | 34006 ft | 449 kts | 297° |
| 2026-05-07 16:37 | 49.08237 | 18.76031 | 34012 ft | 450 kts | 297° |
| 2026-05-07 16:37 | 49.11805 | 18.68178 | 33984 ft | 451 kts | 296° |
| 2026-05-07 16:38 | 49.15376 | 18.60313 | 33992 ft | 451 kts | 296° |
| 2026-05-07 16:38 | 49.18946 | 18.52432 | 33983 ft | 451 kts | 296° |
| 2026-05-07 16:39 | 49.22485 | 18.44629 | 33986 ft | 437 kts | 297° |
| 2026-05-07 16:39 | 49.25922 | 18.37006 | 33969 ft | 435 kts | 296° |
| 2026-05-07 16:40 | 49.29339 | 18.29357 | 33968 ft | 436 kts | 296° |
| 2026-05-07 16:40 | 49.32804 | 18.21600 | 33963 ft | 442 kts | 296° |
| 2026-05-07 16:41 | 49.36247 | 18.13915 | 33954 ft | 432 kts | 296° |
| 2026-05-07 16:41 | 49.39628 | 18.06333 | 33947 ft | 430 kts | 297° |
| 2026-05-07 16:42 | 49.42995 | 17.98727 | 33953 ft | 431 kts | 297° |
| 2026-05-07 16:42 | 49.46337 | 17.91179 | 33953 ft | 422 kts | 297° |
| 2026-05-07 16:43 | 49.49649 | 17.83692 | 33952 ft | 420 kts | 296° |
| 2026-05-07 16:43 | 49.52921 | 17.76252 | 33950 ft | 420 kts | 296° |
| 2026-05-07 16:44 | 49.56181 | 17.68798 | 33953 ft | 420 kts | 296° |
| 2026-05-07 16:44 | 49.59440 | 17.61334 | 33951 ft | 420 kts | 296° |
| 2026-05-07 16:45 | 49.62695 | 17.53864 | 33956 ft | 420 kts | 296° |
| 2026-05-07 16:45 | 49.65955 | 17.46377 | 33953 ft | 420 kts | 296° |
| 2026-05-07 16:46 | 49.69208 | 17.38888 | 33952 ft | 420 kts | 296° |
| 2026-05-07 16:46 | 49.72455 | 17.31392 | 33984 ft | 420 kts | 297° |
| 2026-05-07 16:47 | 49.75694 | 17.23881 | 33979 ft | 420 kts | 296° |
| 2026-05-07 16:47 | 49.78928 | 17.16355 | 33973 ft | 420 kts | 296° |
| 2026-05-07 16:48 | 49.82163 | 17.08818 | 33952 ft | 420 kts | 296° |
| 2026-05-07 16:48 | 49.85394 | 17.01279 | 33956 ft | 420 kts | 296° |
| 2026-05-07 16:49 | 49.88618 | 16.93716 | 33974 ft | 421 kts | 297° |
| 2026-05-07 16:49 | 49.91841 | 16.86124 | 33960 ft | 422 kts | 297° |
| 2026-05-07 16:50 | 49.95068 | 16.78514 | 33949 ft | 422 kts | 297° |
| 2026-05-07 16:50 | 49.98295 | 16.70882 | 33953 ft | 423 kts | 297° |
| 2026-05-07 16:51 | 50.01518 | 16.63232 | 33958 ft | 423 kts | 297° |
| 2026-05-07 16:51 | 50.04745 | 16.55561 | 33975 ft | 424 kts | 297° |
| 2026-05-07 16:52 | 50.07970 | 16.47860 | 33960 ft | 425 kts | 297° |
| 2026-05-07 16:52 | 50.11223 | 16.40090 | 33948 ft | 426 kts | 297° |
| 2026-05-07 16:53 | 50.14436 | 16.32407 | 33952 ft | 426 kts | 297° |
| 2026-05-07 16:53 | 50.17677 | 16.24600 | 34001 ft | 426 kts | 297° |
| 2026-05-07 16:54 | 50.20878 | 16.16833 | 33983 ft | 425 kts | 297° |
| 2026-05-07 16:54 | 50.24090 | 16.09072 | 33976 ft | 425 kts | 297° |
| 2026-05-07 16:55 | 50.27301 | 16.01308 | 33967 ft | 425 kts | 297° |
| 2026-05-07 16:55 | 50.30498 | 15.93524 | 33965 ft | 425 kts | 297° |
| 2026-05-07 16:56 | 50.33681 | 15.85733 | 33997 ft | 425 kts | 298° |
| 2026-05-07 16:56 | 50.38456 | 15.74032 | 33985 ft | 424 kts | 298° |
| 2026-05-07 16:57 | 50.41624 | 15.66242 | 33983 ft | 424 kts | 298° |
| 2026-05-07 16:57 | 50.44784 | 15.58451 | 33978 ft | 423 kts | 298° |
| 2026-05-07 16:58 | 50.47931 | 15.50649 | 33975 ft | 423 kts | 297° |
| 2026-05-07 16:58 | 50.51075 | 15.42836 | 33990 ft | 423 kts | 298° |
| 2026-05-07 16:59 | 50.54213 | 15.35015 | 33987 ft | 423 kts | 298° |
| 2026-05-07 16:59 | 50.57348 | 15.27177 | 33984 ft | 423 kts | 298° |
| 2026-05-07 17:00 | 50.60478 | 15.19326 | 33987 ft | 424 kts | 298° |
| 2026-05-07 17:00 | 50.63102 | 15.12747 | 33986 ft | 424 kts | 298° |
| 2026-05-07 17:01 | 50.66231 | 15.04879 | 34019 ft | 423 kts | 298° |
| 2026-05-07 17:01 | 50.69338 | 14.97025 | 34015 ft | 421 kts | 298° |
| 2026-05-07 17:02 | 50.72423 | 14.89209 | 34019 ft | 419 kts | 298° |
| 2026-05-07 17:02 | 50.75498 | 14.81405 | 34016 ft | 418 kts | 298° |
| 2026-05-07 17:03 | 50.78557 | 14.73608 | 34026 ft | 417 kts | 298° |
| 2026-05-07 17:03 | 50.81600 | 14.65813 | 34038 ft | 416 kts | 299° |
| 2026-05-07 17:04 | 50.84640 | 14.58015 | 34039 ft | 416 kts | 299° |
| 2026-05-07 17:04 | 50.87670 | 14.50218 | 34034 ft | 416 kts | 299° |
| 2026-05-07 17:05 | 50.90690 | 14.42413 | 34037 ft | 415 kts | 298° |
| 2026-05-07 17:05 | 50.94185 | 14.35106 | 34023 ft | 420 kts | 313° |
| 2026-05-07 17:06 | 50.98594 | 14.28976 | 34025 ft | 422 kts | 316° |
| 2026-05-07 17:06 | 51.03035 | 14.22885 | 34044 ft | 422 kts | 317° |
| 2026-05-07 17:07 | 51.07489 | 14.16730 | 34047 ft | 422 kts | 317° |
| 2026-05-07 17:07 | 51.11914 | 14.10603 | 34044 ft | 421 kts | 317° |
| 2026-05-07 17:08 | 51.16333 | 14.04479 | 34066 ft | 421 kts | 317° |
| 2026-05-07 17:08 | 51.20751 | 13.98344 | 34072 ft | 421 kts | 316° |
| 2026-05-07 17:09 | 51.25159 | 13.92190 | 34070 ft | 421 kts | 316° |
| 2026-05-07 17:09 | 51.29569 | 13.86017 | 34065 ft | 421 kts | 316° |
| 2026-05-07 17:10 | 51.33978 | 13.79839 | 34062 ft | 421 kts | 316° |
| 2026-05-07 17:10 | 51.38383 | 13.73657 | 34066 ft | 421 kts | 316° |
| 2026-05-07 17:11 | 51.42785 | 13.67460 | 34069 ft | 421 kts | 316° |
| 2026-05-07 17:11 | 51.47182 | 13.61247 | 34070 ft | 421 kts | 316° |
| 2026-05-07 17:12 | 51.51575 | 13.55018 | 34082 ft | 421 kts | 317° |
| 2026-05-07 17:12 | 51.55960 | 13.48791 | 34085 ft | 421 kts | 317° |
| 2026-05-07 17:13 | 51.60341 | 13.42555 | 34089 ft | 420 kts | 317° |
| 2026-05-07 17:13 | 51.64718 | 13.36307 | 34095 ft | 420 kts | 316° |
| 2026-05-07 17:14 | 51.69086 | 13.30048 | 34098 ft | 420 kts | 316° |
| 2026-05-07 17:14 | 51.73450 | 13.23780 | 34098 ft | 420 kts | 316° |
| 2026-05-07 17:15 | 51.77807 | 13.17502 | 34099 ft | 419 kts | 317° |
| 2026-05-07 17:15 | 51.82188 | 13.11186 | 34083 ft | 419 kts | 317° |
| 2026-05-07 17:16 | 51.86537 | 13.04906 | 34084 ft | 419 kts | 317° |
| 2026-05-07 17:16 | 51.90875 | 12.98612 | 34083 ft | 419 kts | 317° |
| 2026-05-07 17:17 | 51.95222 | 12.92287 | 34087 ft | 419 kts | 317° |
| 2026-05-07 17:17 | 51.99561 | 12.85956 | 34089 ft | 419 kts | 316° |
| 2026-05-07 17:18 | 52.03920 | 12.79571 | 34075 ft | 429 kts | 317° |
| 2026-05-07 17:18 | 52.08420 | 12.72966 | 34071 ft | 443 kts | 317° |
| 2026-05-07 17:19 | 52.13055 | 12.66152 | 34071 ft | 454 kts | 317° |
| 2026-05-07 17:19 | 52.17751 | 12.59228 | 34070 ft | 456 kts | 317° |
| 2026-05-07 17:20 | 52.22446 | 12.52285 | 34073 ft | 456 kts | 317° |
| 2026-05-07 17:20 | 52.27130 | 12.45322 | 34074 ft | 456 kts | 317° |
| 2026-05-07 17:21 | 52.31814 | 12.38344 | 34077 ft | 456 kts | 317° |
| 2026-05-07 17:21 | 52.36504 | 12.31346 | 34082 ft | 456 kts | 317° |
| 2026-05-07 17:22 | 52.41189 | 12.24327 | 34084 ft | 456 kts | 317° |
| 2026-05-07 17:22 | 52.45871 | 12.17288 | 34088 ft | 457 kts | 317° |
| 2026-05-07 17:23 | 52.50545 | 12.10227 | 34087 ft | 457 kts | 316° |
| 2026-05-07 17:23 | 52.55221 | 12.03157 | 34089 ft | 457 kts | 317° |
| 2026-05-07 17:24 | 52.59892 | 11.96070 | 34100 ft | 456 kts | 317° |
| 2026-05-07 17:24 | 52.64620 | 11.89139 | 34098 ft | 455 kts | 322° |
| 2026-05-07 17:25 | 52.69651 | 11.82805 | 34097 ft | 455 kts | 322° |
| 2026-05-07 17:25 | 52.74679 | 11.76449 | 34094 ft | 455 kts | 322° |
| 2026-05-07 17:26 | 52.79699 | 11.70082 | 34095 ft | 455 kts | 322° |
| 2026-05-07 17:26 | 52.84677 | 11.63737 | 33825 ft | 443 kts | 322° |
| 2026-05-07 17:27 | 52.87082 | 11.60662 | 33680 ft | 431 kts | 322° |
| 2026-05-07 17:27 | 52.89419 | 11.57669 | 33536 ft | 419 kts | 322° |
| 2026-05-07 17:27 | 52.91701 | 11.54727 | 32981 ft | 417 kts | 321° |
| 2026-05-07 17:27 | 52.93730 | 11.51180 | 31588 ft | 434 kts | 303° |
| 2026-05-07 17:28 | 52.95033 | 11.46623 | 30490 ft | 443 kts | 284° |
| 2026-05-07 17:28 | 52.95539 | 11.41553 | 29534 ft | 447 kts | 275° |
| 2026-05-07 17:28 | 52.95832 | 11.36395 | 28535 ft | 451 kts | 275° |
| 2026-05-07 17:28 | 52.96106 | 11.31195 | 27595 ft | 454 kts | 275° |
| 2026-05-07 17:29 | 52.96375 | 11.25966 | 26649 ft | 456 kts | 275° |
| 2026-05-07 17:29 | 52.96640 | 11.20715 | 25728 ft | 458 kts | 275° |
| 2026-05-07 17:29 | 52.96901 | 11.15440 | 24787 ft | 460 kts | 275° |
| 2026-05-07 17:29 | 52.97165 | 11.10144 | 23964 ft | 460 kts | 275° |
| 2026-05-07 17:30 | 52.97429 | 11.04897 | 23282 ft | 454 kts | 275° |
| 2026-05-07 17:30 | 52.97691 | 10.99704 | 22505 ft | 449 kts | 275° |
| 2026-05-07 17:30 | 52.97952 | 10.94495 | 21725 ft | 444 kts | 275° |
| 2026-05-07 17:30 | 52.98204 | 10.89414 | 20980 ft | 440 kts | 275° |
| 2026-05-07 17:31 | 52.98453 | 10.84379 | 20256 ft | 436 kts | 275° |
| 2026-05-07 17:31 | 52.98749 | 10.79396 | 19527 ft | 432 kts | 280° |
| 2026-05-07 17:31 | 52.99707 | 10.74714 | 18854 ft | 428 kts | 298° |
| 2026-05-07 17:31 | 53.01465 | 10.70772 | 18114 ft | 424 kts | 315° |
| 2026-05-07 17:32 | 53.03829 | 10.67896 | 17324 ft | 421 kts | 329° |
| 2026-05-07 17:32 | 53.06361 | 10.65459 | 16542 ft | 419 kts | 329° |
| 2026-05-07 17:32 | 53.08873 | 10.63056 | 15843 ft | 415 kts | 329° |
| 2026-05-07 17:32 | 53.10527 | 10.61478 | 15411 ft | 412 kts | 330° |
| 2026-05-07 17:33 | 53.13835 | 10.58300 | 14565 ft | 408 kts | 329° |
| 2026-05-07 17:33 | 53.16276 | 10.55942 | 13971 ft | 405 kts | 329° |
| 2026-05-07 17:33 | 53.17885 | 10.54375 | 13529 ft | 403 kts | 329° |
| 2026-05-07 17:33 | 53.21032 | 10.51061 | 12643 ft | 398 kts | 319° |
| 2026-05-07 17:34 | 53.22292 | 10.48865 | 12221 ft | 395 kts | 307° |
| 2026-05-07 17:34 | 53.23558 | 10.44856 | 11577 ft | 390 kts | 287° |
| 2026-05-07 17:34 | 53.24019 | 10.40428 | 10906 ft | 387 kts | 275° |
| 2026-05-07 17:34 | 53.24244 | 10.35966 | 10366 ft | 381 kts | 274° |
| 2026-05-07 17:35 | 53.24453 | 10.31600 | 10172 ft | 365 kts | 274° |
| 2026-05-07 17:35 | 53.24646 | 10.27545 | 10050 ft | 341 kts | 274° |
| 2026-05-07 17:35 | 53.24819 | 10.23777 | 9838 ft | 311 kts | 274° |
| 2026-05-07 17:35 | 53.24972 | 10.20304 | 9690 ft | 283 kts | 274° |
| 2026-05-07 17:36 | 53.25110 | 10.17135 | 9483 ft | 267 kts | 274° |
| 2026-05-07 17:36 | 53.25236 | 10.14099 | 9344 ft | 258 kts | 274° |
| 2026-05-07 17:36 | 53.25354 | 10.11141 | 9079 ft | 254 kts | 275° |
| 2026-05-07 17:36 | 53.25464 | 10.08208 | 8769 ft | 252 kts | 274° |
| 2026-05-07 17:37 | 53.25573 | 10.05285 | 8433 ft | 252 kts | 275° |
| 2026-05-07 17:37 | 53.25675 | 10.02367 | 8097 ft | 251 kts | 274° |
| 2026-05-07 17:37 | 53.25775 | 9.99459 | 7774 ft | 251 kts | 274° |
| 2026-05-07 17:37 | 53.25872 | 9.96560 | 7454 ft | 250 kts | 274° |
| 2026-05-07 17:38 | 53.25963 | 9.93667 | 7132 ft | 249 kts | 274° |
| 2026-05-07 17:38 | 53.26051 | 9.90772 | 6800 ft | 249 kts | 274° |
| 2026-05-07 17:38 | 53.26133 | 9.87886 | 6479 ft | 248 kts | 274° |
| 2026-05-07 17:38 | 53.26211 | 9.85008 | 6137 ft | 248 kts | 274° |
| 2026-05-07 17:39 | 53.26287 | 9.82136 | 5806 ft | 247 kts | 274° |
| 2026-05-07 17:39 | 53.26363 | 9.79275 | 5474 ft | 246 kts | 274° |
| 2026-05-07 17:39 | 53.26467 | 9.76436 | 5148 ft | 244 kts | 281° |
| 2026-05-07 17:39 | 53.27114 | 9.73922 | 4993 ft | 235 kts | 309° |
| 2026-05-07 17:40 | 53.28140 | 9.71783 | 4995 ft | 238 kts | 314° |
| 2026-05-07 17:40 | 53.29225 | 9.69695 | 4994 ft | 238 kts | 314° |
| 2026-05-07 17:40 | 53.30318 | 9.67614 | 4988 ft | 238 kts | 314° |
| 2026-05-07 17:40 | 53.31411 | 9.65537 | 4988 ft | 238 kts | 314° |
| 2026-05-07 17:41 | 53.32507 | 9.63458 | 4988 ft | 238 kts | 314° |
| 2026-05-07 17:41 | 53.33600 | 9.61382 | 4988 ft | 238 kts | 314° |
| 2026-05-07 17:41 | 53.34845 | 9.59630 | 4985 ft | 232 kts | 340° |
| 2026-05-07 17:41 | 53.36401 | 9.59211 | 4984 ft | 228 kts | 12° |
| 2026-05-07 17:42 | 53.37931 | 9.59915 | 4993 ft | 230 kts | 21° |
| 2026-05-07 17:42 | 53.39416 | 9.60897 | 4968 ft | 229 kts | 27° |
| 2026-05-07 17:42 | 53.40846 | 9.62104 | 4637 ft | 228 kts | 30° |
| 2026-05-07 17:42 | 53.42235 | 9.63332 | 4589 ft | 227 kts | 30° |
| 2026-05-07 17:43 | 53.43631 | 9.64584 | 4519 ft | 227 kts | 30° |
| 2026-05-07 17:43 | 53.45020 | 9.65838 | 4446 ft | 228 kts | 30° |
| 2026-05-07 17:43 | 53.46423 | 9.67105 | 4349 ft | 229 kts | 30° |
| 2026-05-07 17:43 | 53.47467 | 9.68058 | 4279 ft | 229 kts | 33° |
| 2026-05-07 17:44 | 53.48621 | 9.69774 | 4122 ft | 217 kts | 51° |
| 2026-05-07 17:44 | 53.49585 | 9.71698 | 3750 ft | 211 kts | 51° |
| 2026-05-07 17:44 | 53.50519 | 9.73581 | 3506 ft | 208 kts | 52° |
| 2026-05-07 17:44 | 53.51436 | 9.75457 | 3309 ft | 208 kts | 52° |
| 2026-05-07 17:45 | 53.52362 | 9.77325 | 3048 ft | 208 kts | 51° |
| 2026-05-07 17:45 | 53.53288 | 9.79184 | 2776 ft | 207 kts | 52° |
| 2026-05-07 17:45 | 53.54205 | 9.81026 | 2492 ft | 205 kts | 52° |
| 2026-05-07 17:45 | 53.55101 | 9.82823 | 2224 ft | 192 kts | 51° |
| 2026-05-07 17:46 | 53.55900 | 9.84426 | 1992 ft | 164 kts | 52° |
| 2026-05-07 17:46 | 53.56597 | 9.85828 | 1760 ft | 148 kts | 52° |
| 2026-05-07 17:46 | 53.57245 | 9.87134 | 1557 ft | 143 kts | 51° |
| 2026-05-07 17:46 | 53.57872 | 9.88396 | 1357 ft | 141 kts | 52° |
| 2026-05-07 17:47 | 53.58501 | 9.89664 | 1170 ft | 141 kts | 51° |
| 2026-05-07 17:47 | 53.59123 | 9.90917 | 969 ft | 139 kts | 51° |
| 2026-05-07 17:47 | 53.59736 | 9.92154 | 793 ft | 138 kts | 51° |
| 2026-05-07 17:47 | 53.60354 | 9.93401 | 591 ft | 138 kts | 50° |
| 2026-05-07 17:48 | 53.60977 | 9.94659 | 383 ft | 142 kts | 50° |
| 2026-05-07 17:48 | 53.61603 | 9.95916 | 205 ft | 140 kts | 49° |
| 2026-05-07 17:48 | 53.62221 | 9.97167 | 52 ft | 138 kts | 50° |
| 2026-05-07 17:48 | 53.62754 | 9.98248 | 43 ft | 97 kts | 50° |
| 2026-05-07 17:49 | 53.63076 | 9.98898 | 46 ft | 47 kts | 50° |
| 2026-05-07 17:49 | 53.63221 | 9.99193 | 47 ft | 28 kts | 50° |
| 2026-05-07 17:49 | 53.63292 | 9.99499 | 47 ft | 26 kts | 94° |
| 2026-05-07 17:49 | 53.63281 | 9.99617 | 48 ft | 0 kts | 99° |
| 2026-05-07 17:51 | 53.63277 | 9.99653 | 48 ft | 7 kts | 99° |
| 2026-05-07 17:51 | 53.63241 | 9.99740 | 48 ft | 11 kts | 156° |
| 2026-05-07 17:51 | 53.63168 | 9.99808 | 46 ft | 14 kts | 152° |
| 2026-05-07 17:51 | 53.63063 | 9.99899 | 48 ft | 20 kts | 153° |
| 2026-05-07 17:52 | 53.62958 | 10.00001 | 48 ft | 16 kts | 129° |
| 2026-05-07 17:52 | 53.62963 | 10.00114 | 48 ft | 8 kts | 107° |
| 2026-05-07 17:52 | 53.62942 | 10.00211 | 48 ft | 9 kts | 107° |
| 2026-05-07 17:52 | 53.62931 | 10.00269 | 48 ft | 2 kts | 108° |
| 2026-05-07 17:53 | 53.62928 | 10.00284 | 48 ft | 0 kts | 108° |